Time;durP1;ratioP1;P1;durP2;ratioP2;P2;SDS_P1;SDS_P2;PMS_P1;PMS_P2;Temp;Humidity;BMP_temperature;BMP_pressure;BME280_temperature;BME280_humidity;BME280_pressure;Samples;Min_cycle;Max_cycle;Signal;HPM_P1;HPM_P2
2022/01/15 00:01:06;;;;;;;17.17;6.40;;;-0.50;99.90;;;;;;6279275;22;20079;-88
2022/01/15 00:03:33;;;;;;;17.30;6.03;;;-0.50;99.90;;;;;;6277838;22;20433;-89
2022/01/15 00:05:59;;;;;;;14.77;6.73;;;-0.50;99.90;;;;;;6278267;22;20599;-89
2022/01/15 00:08:24;;;;;;;13.10;5.77;;;-0.50;99.90;;;;;;6304779;22;20137;-88
2022/01/15 00:10:51;;;;;;;15.10;6.07;;;-0.50;99.90;;;;;;6277548;22;20054;-89
2022/01/15 00:13:30;;;;;;;13.43;5.97;;;-0.50;99.90;;;;;;6277627;22;20007;-90
2022/01/15 00:16:08;;;;;;;13.30;5.73;;;-0.60;99.90;;;;;;6278262;22;20011;-88
2022/01/15 00:18:46;;;;;;;13.43;6.07;;;-0.60;99.90;;;;;;6278085;22;20037;-89
2022/01/15 00:21:13;;;;;;;15.93;6.23;;;-0.60;99.90;;;;;;6283876;22;20007;-88
2022/01/15 00:23:40;;;;;;;12.60;5.77;;;-0.60;99.90;;;;;;6290791;22;20026;-88
2022/01/15 00:26:06;;;;;;;11.87;5.53;;;-0.60;99.90;;;;;;6298068;22;20054;-90
2022/01/15 00:28:31;;;;;;;14.43;6.57;;;-0.70;99.90;;;;;;6298876;22;19999;-89
2022/01/15 00:30:57;;;;;;;16.20;6.27;;;-0.60;99.90;;;;;;6296848;22;20023;-89
2022/01/15 00:33:24;;;;;;;13.63;6.33;;;-0.70;99.90;;;;;;6286725;22;20007;-88
2022/01/15 00:35:51;;;;;;;17.67;7.07;;;-0.70;99.90;;;;;;6279414;22;20010;-89
2022/01/15 00:38:16;;;;;;;11.97;5.23;;;-0.70;99.90;;;;;;6277453;22;20008;-88
2022/01/15 00:40:42;;;;;;;15.27;5.70;;;-0.70;99.90;;;;;;6276921;22;20011;-88
2022/01/15 00:43:07;;;;;;;12.33;5.07;;;-0.70;99.90;;;;;;6277053;22;20019;-88
2022/01/15 00:45:33;;;;;;;11.90;5.30;;;-0.70;99.90;;;;;;6277222;22;20006;-89
2022/01/15 00:47:59;;;;;;;14.03;5.00;;;-0.70;99.90;;;;;;6277016;22;20019;-88
2022/01/15 00:50:25;;;;;;;12.27;5.97;;;-0.70;99.90;;;;;;6277138;22;20019;-88
2022/01/15 00:52:51;;;;;;;16.83;6.30;;;-0.70;99.90;;;;;;6284523;22;20011;-88
2022/01/15 00:55:19;;;;;;;13.37;5.97;;;-0.70;99.90;;;;;;6276750;22;20072;-88
2022/01/15 00:57:45;;;;;;;13.03;5.67;;;-0.70;99.90;;;;;;6281650;22;20007;-88
2022/01/15 01:00:15;;;;;;;12.13;5.90;;;-0.80;99.90;;;;;;6287456;22;20014;-89
2022/01/15 01:02:41;;;;;;;15.23;6.13;;;-0.80;99.90;;;;;;6279238;22;20023;-88
2022/01/15 01:05:07;;;;;;;13.67;5.97;;;-0.90;99.90;;;;;;6279331;22;20086;-88
2022/01/15 01:07:32;;;;;;;10.10;4.70;;;-0.90;99.90;;;;;;6279543;22;20064;-87
2022/01/15 01:10:46;;;;;;;17.07;5.67;;;-0.90;99.90;;;;;;6278198;22;20007;-89
2022/01/15 01:23:36;;;;;;;15.05;4.88;;;-0.80;99.90;;;;;;6317122;22;20082;-89
2022/01/15 01:29:32;;;;;;;11.83;5.50;;;-0.80;99.90;;;;;;6238936;22;20030;-89
2022/01/15 01:32:06;;;;;;;12.87;6.13;;;-0.70;99.90;;;;;;6278609;22;20023;-88
2022/01/15 01:34:37;;;;;;;14.43;6.47;;;-0.70;99.90;;;;;;6278867;22;20374;-89
2022/01/15 01:37:16;;;;;;;13.50;6.00;;;-0.70;99.90;;;;;;6278101;22;20086;-88
2022/01/15 01:39:50;;;;;;;12.00;5.63;;;-0.60;99.90;;;;;;6278985;22;20003;-88
2022/01/15 01:45:14;;;;;;;12.50;5.87;;;-0.60;99.90;;;;;;6316237;22;20007;-89
2022/01/15 01:47:49;;;;;;;15.50;5.37;;;-0.60;99.90;;;;;;6260214;22;20069;-90
2022/01/15 01:50:19;;;;;;;12.80;5.30;;;-0.70;99.90;;;;;;6283858;22;20491;-90
2022/01/15 01:52:48;;;;;;;12.30;6.03;;;-0.70;99.90;;;;;;6285386;22;20033;-91
2022/01/15 01:55:19;;;;;;;12.47;6.37;;;-0.70;99.90;;;;;;6285399;22;20031;-91
2022/01/15 01:58:04;;;;;;;10.30;5.67;;;-0.70;99.90;;;;;;6285148;22;20010;-90
2022/01/15 02:00:31;;;;;;;13.47;5.80;;;-0.70;99.90;;;;;;6259318;22;20008;-91
2022/01/15 02:03:03;;;;;;;11.10;5.70;;;-0.80;99.90;;;;;;6259134;22;20007;-91
2022/01/15 02:05:32;;;;;;;12.32;4.88;;;-0.80;99.90;;;;;;6259018;22;20360;-90
2022/01/15 02:08:00;;;;;;;15.10;5.80;;;-0.80;99.90;;;;;;6260127;22;20006;-90
2022/01/15 02:10:26;;;;;;;13.80;5.30;;;-0.90;99.90;;;;;;6261120;22;20000;-90
2022/01/15 02:13:18;;;;;;;11.53;5.80;;;-0.90;99.90;;;;;;6259350;22;20014;-90
2022/01/15 02:15:46;;;;;;;13.07;4.63;;;-1.00;99.90;;;;;;6259495;22;19999;-90
2022/01/15 02:18:15;;;;;;;14.13;5.20;;;-1.00;99.90;;;;;;6259107;22;20004;-90
2022/01/15 02:25:59;;;;;;;13.43;5.60;;;-1.00;99.90;;;;;;6286160;22;20030;-90
2022/01/15 02:28:29;;;;;;;12.20;6.10;;;-1.10;99.90;;;;;;6259871;22;20163;-90
2022/01/15 02:31:02;;;;;;;12.53;5.23;;;-1.10;99.90;;;;;;6259801;22;20057;-90
2022/01/15 02:33:28;;;;;;;15.67;5.53;;;-1.10;99.90;;;;;;6260306;22;20430;-90
2022/01/15 02:36:10;;;;;;;13.13;5.13;;;-1.20;99.90;;;;;;6260744;22;20026;-91
2022/01/15 02:38:37;;;;;;;15.55;5.55;;;-1.20;99.90;;;;;;6259740;22;20010;-91
2022/01/15 02:41:03;;;;;;;14.27;5.80;;;-1.20;99.90;;;;;;6258643;22;20007;-92
2022/01/15 02:43:32;;;;;;;14.03;5.80;;;-1.20;99.90;;;;;;6259767;22;20082;-91
2022/01/15 02:46:08;;;;;;;15.03;6.40;;;-1.30;99.90;;;;;;6258725;22;20426;-91
2022/01/15 02:48:36;;;;;;;16.27;7.33;;;-1.20;99.90;;;;;;6258598;22;20016;-92
2022/01/15 02:51:02;;;;;;;14.30;6.23;;;-1.30;99.90;;;;;;6258614;22;19999;-91
2022/01/15 02:53:31;;;;;;;11.43;5.93;;;-1.30;99.90;;;;;;6259609;22;20006;-91
2022/01/15 02:55:57;;;;;;;14.97;7.10;;;-1.20;99.90;;;;;;6258260;22;20019;-91
2022/01/15 02:58:27;;;;;;;16.73;6.50;;;-1.20;99.90;;;;;;6258736;22;20082;-91
2022/01/15 03:00:53;;;;;;;15.43;6.40;;;-1.30;99.90;;;;;;6259332;22;20038;-92
2022/01/15 03:03:18;;;;;;;13.33;6.50;;;-1.30;99.90;;;;;;6258311;22;19999;-91
2022/01/15 03:05:47;;;;;;;13.63;7.50;;;-1.40;99.90;;;;;;6258957;22;20000;-91
2022/01/15 03:08:24;;;;;;;15.40;7.20;;;-1.30;99.90;;;;;;6259174;22;19999;-91
2022/01/15 03:10:53;;;;;;;14.07;6.07;;;-1.20;99.90;;;;;;6258565;22;20007;-91
2022/01/15 03:13:18;;;;;;;14.33;7.03;;;-1.30;99.90;;;;;;6259403;22;20011;-90
2022/01/15 03:15:45;;;;;;;14.70;6.67;;;-1.40;99.90;;;;;;6258612;22;20011;-91
2022/01/15 03:18:11;;;;;;;14.93;7.50;;;-1.30;99.90;;;;;;6258867;22;20004;-91
2022/01/15 03:20:49;;;;;;;12.13;6.50;;;-1.40;99.90;;;;;;6258495;22;20022;-91
2022/01/15 03:23:15;;;;;;;11.93;6.40;;;-1.30;99.90;;;;;;6259361;22;20004;-91
2022/01/15 03:25:42;;;;;;;16.40;6.67;;;-1.30;99.90;;;;;;6258340;22;19995;-92
2022/01/15 03:28:08;;;;;;;16.47;7.37;;;-1.40;99.90;;;;;;6258358;22;20004;-91
2022/01/15 03:30:33;;;;;;;15.27;6.17;;;-1.40;99.90;;;;;;6258899;22;20000;-91
2022/01/15 03:33:00;;;;;;;14.10;6.13;;;-1.30;99.90;;;;;;6285911;22;20007;-91
2022/01/15 03:35:27;;;;;;;13.47;6.50;;;-1.40;99.90;;;;;;6256879;22;20003;-92
2022/01/15 03:37:53;;;;;;;15.77;6.90;;;-1.40;99.90;;;;;;6255024;22;20050;-91
2022/01/15 03:40:19;;;;;;;15.00;7.07;;;-1.40;99.90;;;;;;6252045;22;20004;-91
2022/01/15 03:42:46;;;;;;;13.07;6.50;;;-1.40;99.90;;;;;;6255100;22;20426;-91
2022/01/15 03:45:15;;;;;;;10.40;5.83;;;-1.40;99.90;;;;;;6256591;22;20006;-91
2022/01/15 03:47:44;;;;;;;14.33;6.70;;;-1.50;99.90;;;;;;6252398;22;20004;-91
2022/01/15 03:50:43;;;;;;;15.73;7.03;;;-1.50;99.90;;;;;;6252124;23;20000;-91
2022/01/15 03:53:08;;;;;;;13.77;6.23;;;-1.50;99.90;;;;;;6253126;23;20000;-90
2022/01/15 03:55:37;;;;;;;12.00;5.90;;;-1.40;99.90;;;;;;6252693;23;20027;-91
2022/01/15 03:58:03;;;;;;;14.50;6.57;;;-1.40;99.90;;;;;;6253200;22;20003;-91
2022/01/15 04:00:29;;;;;;;12.67;6.40;;;-1.40;99.90;;;;;;6252751;23;20004;-91
2022/01/15 04:02:58;;;;;;;15.87;6.20;;;-1.40;99.90;;;;;;6253029;23;20067;-91
2022/01/15 04:05:26;;;;;;;13.70;5.77;;;-1.40;99.90;;;;;;6253793;23;19996;-91
2022/01/15 04:07:52;;;;;;;13.17;6.60;;;-1.50;99.90;;;;;;6252949;22;20062;-91
2022/01/15 04:10:45;;;;;;;15.80;6.80;;;-1.40;99.90;;;;;;6253240;23;20008;-91
2022/01/15 04:13:15;;;;;;;13.33;6.33;;;-1.60;99.90;;;;;;6253277;23;20000;-91
2022/01/15 04:15:42;;;;;;;12.00;5.60;;;-1.60;99.90;;;;;;6253198;23;20016;-91
2022/01/15 04:18:17;;;;;;;12.50;5.40;;;-1.50;99.90;;;;;;6253719;23;20008;-91
2022/01/15 04:20:43;;;;;;;10.43;5.47;;;-1.50;99.90;;;;;;6252312;23;20461;-90
2022/01/15 04:23:09;;;;;;;11.57;4.90;;;-1.50;99.90;;;;;;6253626;23;19996;-91
2022/01/15 04:25:35;;;;;;;13.27;5.43;;;-1.50;99.90;;;;;;6253434;23;20008;-91
2022/01/15 04:28:03;;;;;;;12.07;5.73;;;-1.50;99.90;;;;;;6250722;22;20000;-91
2022/01/15 04:30:29;;;;;;;11.10;5.53;;;-1.50;99.90;;;;;;6251344;23;20502;-91
2022/01/15 04:32:58;;;;;;;10.27;5.50;;;-1.40;99.90;;;;;;6253012;23;20019;-91
2022/01/15 04:35:26;;;;;;;10.77;4.87;;;-1.50;99.90;;;;;;6252997;23;20004;-91
2022/01/15 04:38:00;;;;;;;11.07;4.63;;;-1.50;99.90;;;;;;6251783;22;20438;-91
2022/01/15 04:40:51;;;;;;;9.30;4.83;;;-1.40;99.90;;;;;;6252525;23;20007;-91
2022/01/15 04:43:17;;;;;;;7.57;3.07;;;-1.50;99.90;;;;;;6252746;23;20009;-91
2022/01/15 04:45:43;;;;;;;12.97;4.87;;;-1.60;99.90;;;;;;6253297;22;20004;-92
2022/01/15 04:48:15;;;;;;;12.10;5.73;;;-1.60;99.90;;;;;;6252506;23;20019;-91
2022/01/15 04:50:57;;;;;;;10.18;4.63;;;-1.50;99.90;;;;;;6254723;23;20018;-91
2022/01/15 04:53:22;;;;;;;14.18;5.00;;;-1.60;99.90;;;;;;6252253;23;20000;-90
2022/01/15 04:55:48;;;;;;;13.30;5.80;;;-1.60;99.90;;;;;;6245948;22;20008;-91
2022/01/15 04:58:46;;;;;;;13.03;4.90;;;-1.60;99.90;;;;;;6251625;23;20008;-91
2022/01/15 05:01:15;;;;;;;11.10;4.93;;;-1.60;99.90;;;;;;6255440;23;20133;-92
2022/01/15 05:03:58;;;;;;;10.40;5.13;;;-1.50;99.90;;;;;;6255688;23;20000;-91
2022/01/15 05:06:26;;;;;;;13.43;5.00;;;-1.60;99.90;;;;;;6255801;22;19996;-91
2022/01/15 05:09:01;;;;;;;9.83;4.37;;;-1.60;99.90;;;;;;6255826;23;19997;-91
2022/01/15 05:11:43;;;;;;;11.73;5.30;;;-1.60;99.90;;;;;;6252794;23;20015;-91
2022/01/15 05:14:13;;;;;;;11.77;5.47;;;-1.60;99.90;;;;;;6253949;23;20031;-91
2022/01/15 05:16:41;;;;;;;11.90;5.13;;;-1.60;99.90;;;;;;6255440;22;20010;-91
2022/01/15 05:19:15;;;;;;;13.33;5.53;;;-1.60;99.90;;;;;;6256514;23;20453;-91
2022/01/15 05:21:55;;;;;;;12.17;5.03;;;-1.60;99.90;;;;;;6256343;23;20004;-91
2022/01/15 05:24:31;;;;;;;;;;;;;;;;;;;;;
2022/01/15 05:26:57;;;;;;;10.33;4.43;;;-1.60;99.90;;;;;;6261559;22;20015;-90
2022/01/15 05:29:23;;;;;;;10.60;4.67;;;-1.60;99.90;;;;;;6262069;23;19997;-91
2022/01/15 05:31:52;;;;;;;9.40;5.07;;;-1.70;99.90;;;;;;6267929;22;20008;-91
2022/01/15 05:34:18;;;;;;;9.87;4.83;;;-1.70;99.90;;;;;;6257972;23;20004;-92
2022/01/15 05:37:12;;;;;;;14.27;5.13;;;-1.70;99.90;;;;;;6266213;22;20000;-93
2022/01/15 05:40:06;;;;;;;7.77;4.30;;;-1.70;99.90;;;;;;6263645;23;20060;-91
2022/01/15 05:42:41;;;;;;;9.00;4.60;;;-1.60;99.90;;;;;;6262446;23;20020;-92
2022/01/15 05:45:09;;;;;;;12.77;5.20;;;-1.70;99.90;;;;;;6258150;23;20011;-91
2022/01/15 05:47:46;;;;;;;9.80;4.40;;;-1.70;99.90;;;;;;6259219;22;20004;-91
2022/01/15 05:50:23;;;;;;;11.67;4.57;;;-1.70;99.90;;;;;;6260600;23;20381;-91
2022/01/15 05:52:52;;;;;;;9.50;4.60;;;-1.60;99.90;;;;;;6259053;23;20000;-92
2022/01/15 05:58:33;;;;;;;11.93;4.97;;;-1.70;99.90;;;;;;6238713;22;20019;-93
2022/01/15 06:01:02;;;;;;;9.57;4.50;;;-1.70;99.90;;;;;;6246479;22;20012;-91
2022/01/15 06:03:31;;;;;;;10.67;4.90;;;-1.70;99.90;;;;;;6227737;23;20007;-91
2022/01/15 06:06:21;;;;;;;10.37;4.73;;;-1.70;99.90;;;;;;6239177;23;19988;-91
2022/01/15 06:09:03;;;;;;;11.00;4.67;;;-1.70;99.90;;;;;;6263077;22;20058;-90
2022/01/15 06:11:35;;;;;;;10.50;4.35;;;-1.70;99.90;;;;;;6235818;23;20000;-91
2022/01/15 06:14:29;;;;;;;10.17;4.57;;;-1.70;99.90;;;;;;6234419;23;20012;-91
2022/01/15 06:16:55;;;;;;;9.33;4.03;;;-1.60;99.90;;;;;;6231400;23;20095;-93
2022/01/15 06:20:01;;;;;;;9.37;4.30;;;-1.70;99.90;;;;;;6238846;23;20003;-92
2022/01/15 06:23:01;;;;;;;8.93;4.33;;;-1.60;99.90;;;;;;6240274;23;20010;-92
2022/01/15 06:25:30;;;;;;;10.97;4.73;;;-1.70;99.90;;;;;;6231427;23;20004;-92
2022/01/15 06:27:59;;;;;;;8.37;4.20;;;-1.70;99.90;;;;;;6234691;23;20103;-91
2022/01/15 06:30:27;;;;;;;12.87;4.97;;;-1.70;99.90;;;;;;6231516;23;20489;-90
2022/01/15 06:32:53;;;;;;;12.43;5.50;;;-1.70;99.90;;;;;;6228729;23;20001;-92
2022/01/15 06:35:19;;;;;;;11.33;5.27;;;-1.80;99.90;;;;;;6229101;23;20015;-92
2022/01/15 06:38:04;;;;;;;8.33;4.50;;;-1.60;99.90;;;;;;6233935;23;20039;-91
2022/01/15 06:41:07;;;;;;;12.80;4.77;;;-1.70;99.90;;;;;;6216838;23;20006;-91
2022/01/15 06:43:36;;;;;;;9.30;4.30;;;-1.80;99.90;;;;;;6197844;23;20007;-91
2022/01/15 06:46:08;;;;;;;10.90;5.47;;;-1.80;99.90;;;;;;6237162;23;20004;-92
2022/01/15 06:48:53;;;;;;;;;;;;;;;;;;;;;
2022/01/15 06:51:25;;;;;;;10.30;5.10;;;-1.80;99.90;;;;;;6262681;23;20011;-91
2022/01/15 06:54:02;;;;;;;8.48;4.43;;;-1.80;99.90;;;;;;6234557;23;20055;-92
2022/01/15 06:56:37;;;;;;;15.10;6.10;;;-1.80;99.90;;;;;;6212702;23;20016;-92
2022/01/15 06:59:04;;;;;;;9.83;4.93;;;-1.90;99.90;;;;;;6235777;23;20008;-91
2022/01/15 07:01:31;;;;;;;13.00;5.00;;;-1.90;99.90;;;;;;6260143;23;20008;-91
2022/01/15 07:03:56;;;;;;;13.23;5.10;;;-1.80;99.90;;;;;;6233406;23;20000;-91
2022/01/15 07:06:22;;;;;;;11.30;4.90;;;-1.80;99.90;;;;;;6234248;23;20006;-92
2022/01/15 07:08:51;;;;;;;11.57;5.50;;;-1.90;99.90;;;;;;6233124;23;20056;-91
2022/01/15 07:11:31;;;;;;;11.50;5.20;;;-1.80;99.90;;;;;;6235621;23;20004;-91
2022/01/15 07:13:57;;;;;;;11.40;5.67;;;-1.80;99.90;;;;;;6237029;23;20019;-91
2022/01/15 07:19:53;;;;;;;14.18;5.22;;;-1.80;99.90;;;;;;6262606;23;20074;-90
2022/01/15 07:22:19;;;;;;;11.50;5.37;;;-1.80;99.90;;;;;;6235711;23;20071;-91
2022/01/15 07:24:53;;;;;;;10.80;5.30;;;-1.80;99.90;;;;;;6235385;23;20059;-92
2022/01/15 07:33:35;;;;;;;12.53;5.93;;;-1.80;99.90;;;;;;6258598;23;20354;-91
2022/01/15 07:36:07;;;;;;;11.50;4.93;;;-1.80;99.90;;;;;;6232616;22;20012;-92
2022/01/15 07:38:39;;;;;;;13.90;6.32;;;-1.80;99.90;;;;;;6258572;23;20000;-92
2022/01/15 07:41:06;;;;;;;12.35;5.68;;;-1.70;99.90;;;;;;6255400;23;20500;-92
2022/01/15 07:43:34;;;;;;;12.90;5.27;;;-1.70;99.90;;;;;;6231571;23;19996;-91
2022/01/15 07:46:07;;;;;;;12.93;5.97;;;-1.70;99.90;;;;;;6258895;22;20007;-93
2022/01/15 07:48:32;;;;;;;;;;;-1.60;99.90;;;;;;6210370;23;20011;-92
2022/01/15 07:51:01;;;;;;;10.97;5.20;;;-1.60;99.90;;;;;;6231419;23;19981;-91
2022/01/15 07:53:34;;;;;;;12.37;6.00;;;-1.60;99.90;;;;;;6258821;23;20023;-91
2022/01/15 07:56:22;;;;;;;18.77;6.40;;;-1.60;99.90;;;;;;6258576;22;20006;-91
2022/01/15 07:58:57;;;;;;;12.83;6.33;;;-1.50;99.90;;;;;;6259573;23;20335;-92
2022/01/15 08:01:32;;;;;;;;;;;;;;;;;;;;;
2022/01/15 08:03:58;;;;;;;15.13;6.40;;;-1.50;99.90;;;;;;6248026;23;20083;-93
2022/01/15 08:06:24;;;;;;;15.73;7.03;;;-1.50;99.90;;;;;;6249567;22;20304;-91
2022/01/15 08:08:50;;;;;;;15.53;6.30;;;-1.50;99.90;;;;;;6262164;23;20008;-92
2022/01/15 08:11:21;;;;;;;12.57;5.73;;;-1.40;99.90;;;;;;6261879;23;20004;-93
2022/01/15 08:13:46;;;;;;;14.60;5.93;;;-1.40;99.90;;;;;;6261405;23;20027;-92
2022/01/15 08:16:34;;;;;;;14.73;6.57;;;-1.40;99.90;;;;;;6260520;22;20450;-92
2022/01/15 08:19:08;;;;;;;14.97;6.50;;;-1.40;99.90;;;;;;6260801;23;20000;-93
2022/01/15 08:21:43;;;;;;;12.30;6.37;;;-1.30;99.90;;;;;;6259130;23;20011;-92
2022/01/15 08:24:25;;;;;;;14.47;6.63;;;-1.20;99.90;;;;;;6257316;23;20008;-92
2022/01/15 08:26:52;;;;;;;17.03;7.80;;;-1.30;99.90;;;;;;6252169;22;20010;-92
2022/01/15 08:29:21;;;;;;;11.57;6.83;;;-1.20;99.90;;;;;;6242610;23;20013;-93
2022/01/15 08:31:46;;;;;;;14.23;6.90;;;-1.10;99.90;;;;;;6227114;23;20020;-93
2022/01/15 08:34:50;;;;;;;15.93;7.67;;;-1.00;99.90;;;;;;6228981;23;20031;-93
2022/01/15 08:37:25;;;;;;;15.67;6.90;;;-1.00;99.90;;;;;;6198992;23;20001;-93
2022/01/15 08:40:22;;;;;;;15.70;7.00;;;-0.90;99.90;;;;;;6196570;23;19997;-93
2022/01/15 08:42:59;;;;;;;19.07;7.80;;;-0.70;99.90;;;;;;6197234;23;20549;-92
2022/01/15 08:45:57;;;;;;;15.77;7.37;;;-0.70;99.90;;;;;;6200257;23;20013;-93
2022/01/15 08:48:41;;;;;;;16.13;7.67;;;-0.50;99.90;;;;;;6174490;23;20464;-92
2022/01/15 08:51:44;;;;;;;12.63;7.23;;;-0.30;99.90;;;;;;6197974;23;20001;-91
2022/01/15 08:54:44;;;;;;;15.50;7.20;;;-0.40;99.90;;;;;;6173570;23;20032;-91
2022/01/15 09:01:04;;;;;;;14.67;6.80;;;-0.30;99.90;;;;;;6200729;23;20471;-91
2022/01/15 09:04:14;;;;;;;16.90;7.40;;;-0.20;99.90;;;;;;6177276;23;20001;-90
2022/01/15 09:07:10;;;;;;;13.97;7.10;;;-0.10;99.90;;;;;;6200098;23;20005;-90
2022/01/15 09:10:23;;;;;;;14.03;7.13;;;0.00;99.90;;;;;;6175374;23;20001;-90
2022/01/15 09:16:12;;;;;;;16.27;7.53;;;0.00;99.90;;;;;;6232979;23;20130;-89
2022/01/15 09:18:51;;;;;;;16.60;7.97;;;0.20;99.90;;;;;;6208125;23;20020;-90
2022/01/15 09:21:42;;;;;;;17.37;7.77;;;0.30;99.90;;;;;;6231980;23;20001;-90
2022/01/15 10:32:14;;;;;;;16.60;8.17;;;2.10;99.90;;;;;;6278394;22;20012;-90
2022/01/15 10:38:17;;;;;;;16.90;7.33;;;2.30;99.90;;;;;;6189948;23;20005;-90
2022/01/15 10:41:09;;;;;;;13.90;7.80;;;2.40;99.90;;;;;;6189163;23;20056;-89
2022/01/15 10:44:22;;;;;;;;;;;;;;;;;;;;;
2022/01/15 11:07:48;;;;;;;17.03;8.17;;;2.50;99.90;;;;;;6098758;23;19990;-90
2022/01/15 11:10:19;;;;;;;17.33;7.80;;;2.60;99.90;;;;;;6116200;23;20078;-90
2022/01/15 11:12:48;;;;;;;15.88;6.30;;;2.70;99.90;;;;;;6137517;23;20007;-89
2022/01/15 11:16:05;;;;;;;;;;;;;;;;;;;;;
2022/01/15 11:18:41;;;;;;;16.80;7.87;;;2.60;99.90;;;;;;6258115;22;20016;-88
2022/01/15 11:21:29;;;;;;;16.80;7.40;;;2.70;99.90;;;;;;6243980;23;20000;-90
2022/01/15 11:24:15;;;;;;;14.93;8.07;;;2.70;99.90;;;;;;6239220;23;20078;-89
2022/01/15 11:26:41;;;;;;;15.00;7.53;;;2.70;99.90;;;;;;6216144;23;20000;-90
2022/01/15 11:29:07;;;;;;;15.73;8.00;;;2.80;99.90;;;;;;6247185;23;20004;-90
2022/01/15 11:32:26;;;;;;;16.60;7.70;;;2.90;99.90;;;;;;6246866;23;20023;-90
2022/01/15 11:35:35;;;;;;;17.13;8.77;;;2.90;99.90;;;;;;6247590;23;20497;-91
2022/01/15 11:41:26;;;;;;;17.57;7.90;;;3.00;99.90;;;;;;6246700;23;20015;-91
2022/01/15 11:43:53;;;;;;;17.57;7.67;;;3.00;99.90;;;;;;6248869;23;20318;-91
2022/01/15 11:46:49;;;;;;;17.03;8.47;;;3.10;99.90;;;;;;6245075;22;20000;-93
2022/01/15 11:52:31;;;;;;;20.37;9.00;;;3.30;99.90;;;;;;6211062;23;20518;-88
2022/01/15 11:55:31;;;;;;;17.60;9.60;;;3.50;99.90;;;;;;6181984;23;20040;-89
2022/01/15 11:58:27;;;;;;;21.30;8.93;;;3.60;99.90;;;;;;6210811;23;20004;-88
2022/01/15 12:00:58;;;;;;;16.07;8.73;;;3.60;99.90;;;;;;6205876;23;20489;-89
2022/01/15 12:03:40;;;;;;;15.97;7.73;;;3.70;99.90;;;;;;6220244;23;20021;-89
2022/01/15 12:06:06;;;;;;;18.95;8.27;;;3.80;99.90;;;;;;6251143;23;20000;-88
2022/01/15 12:08:58;;;;;;;20.07;8.23;;;3.90;99.90;;;;;;6254516;23;20015;-88
2022/01/15 12:11:46;;;;;;;16.27;8.10;;;3.90;99.90;;;;;;6250833;22;20004;-88
2022/01/15 12:15:29;;;;;;;;;;;;;;;;;;;;;
2022/01/15 12:18:15;;;;;;;11.55;5.18;;;4.10;99.90;;;;;;6128910;23;20029;-88
2022/01/15 12:21:28;;;;;;;14.63;7.30;;;4.20;99.90;;;;;;6170174;23;20012;-88
2022/01/15 12:28:06;;;;;;;16.73;8.00;;;4.20;99.90;;;;;;6247004;23;20000;-88
2022/01/15 12:31:29;;;;;;;;;;;;;;;;;;;;;
2022/01/15 12:34:22;;;;;;;19.60;8.20;;;4.10;99.90;;;;;;6246667;23;20075;-88
2022/01/15 12:37:20;;;;;;;19.03;8.57;;;4.10;99.90;;;;;;6243860;23;20046;-89
2022/01/15 12:39:53;;;;;;;15.90;7.53;;;4.20;99.90;;;;;;6218120;23;20506;-88
2022/01/15 12:42:34;;;;;;;13.47;7.00;;;4.20;99.90;;;;;;6246613;23;20007;-88
2022/01/15 12:45:39;;;;;;;14.07;7.63;;;4.20;99.90;;;;;;6244331;23;20500;-88
2022/01/15 12:52:30;;;;;;;16.13;8.13;;;4.30;99.90;;;;;;6177742;23;20033;-88
2022/01/15 12:58:22;;;;;;;17.73;8.27;;;4.40;99.90;;;;;;6267622;22;20004;-88
2022/01/15 13:04:17;;;;;;;12.67;7.00;;;4.60;99.90;;;;;;6253058;22;20488;-89
2022/01/15 13:10:45;;;;;;;;;;;;;;;;;;;;;
2022/01/15 13:13:34;;;;;;;13.90;7.13;;;4.60;99.90;;;;;;6258148;22;20075;-88
2022/01/15 13:16:33;;;;;;;16.47;7.33;;;4.70;99.90;;;;;;6277852;22;20037;-88
2022/01/15 13:19:22;;;;;;;15.27;7.60;;;4.80;99.90;;;;;;6255747;22;20004;-88
2022/01/15 13:28:25;;;;;;;18.40;8.37;;;4.80;99.90;;;;;;6278325;22;20340;-88
2022/01/15 13:31:41;;;;;;;16.90;8.13;;;4.80;99.90;;;;;;6276467;22;20006;-88
2022/01/15 13:34:21;;;;;;;14.80;7.57;;;4.90;99.90;;;;;;6268527;22;20008;-87
2022/01/15 13:37:05;;;;;;;14.73;8.27;;;4.90;99.90;;;;;;6250517;22;20031;-88
2022/01/15 13:40:11;;;;;;;13.30;7.83;;;5.00;99.90;;;;;;6248848;22;20010;-88
2022/01/15 13:46:20;;;;;;;16.13;7.97;;;4.90;99.90;;;;;;6267717;22;20011;-88
2022/01/15 13:49:13;;;;;;;17.53;8.27;;;4.90;99.90;;;;;;6250298;22;20004;-88
2022/01/15 13:55:46;;;;;;;14.87;8.00;;;5.00;99.90;;;;;;6277347;22;20049;-88
2022/01/15 13:58:47;;;;;;;16.53;8.73;;;5.10;99.90;;;;;;6122066;23;20010;-88
2022/01/15 14:09:15;;;;;;;;;;;;;;;;;;;;;
2022/01/15 14:12:30;;;;;;;15.57;8.37;;;4.90;99.90;;;;;;6134895;22;20107;-88
2022/01/15 14:19:27;;;;;;;16.40;8.63;;;4.80;99.90;;;;;;6218782;22;20027;-87
2022/01/15 14:22:08;;;;;;;;;;;;;;;;;;;;;
2022/01/15 14:25:17;;;;;;;21.95;8.13;;;4.70;99.90;;;;;;6273112;22;20119;-88
2022/01/15 14:28:23;;;;;;;16.97;8.20;;;4.70;99.90;;;;;;6246206;22;20008;-87
2022/01/15 14:37:47;;;;;;;;;;;;;;;;;;;;;
2022/01/15 15:13:30;;;;;;;17.30;8.53;;;4.20;99.90;;;;;;6181125;22;20412;-88
2022/01/15 15:22:20;;;;;;;;;;;;;;;;;;;;;
2022/01/15 15:25:16;;;;;;;20.27;9.50;;;3.40;99.90;;;;;;6244004;22;20395;-87
2022/01/15 15:32:16;;;;;;;17.17;9.63;;;3.20;99.90;;;;;;6220834;23;20446;-88
2022/01/15 15:35:29;;;;;;;;;;;;;;;;;;;;;
2022/01/15 15:38:23;;;;;;;;;;;3.00;99.90;;;;;;6132577;23;20516;-88
2022/01/15 15:40:59;;;;;;;20.17;9.13;;;2.90;99.90;;;;;;6271485;22;20276;-88
2022/01/15 15:44:11;;;;;;;;;;;;;;;;;;;;;
2022/01/15 15:46:53;;;;;;;16.63;8.95;;;2.70;99.90;;;;;;6180240;22;20080;-88
2022/01/15 15:49:35;;;;;;;15.20;7.37;;;2.60;99.90;;;;;;6246351;22;20050;-88
2022/01/15 15:52:34;;;;;;;19.87;9.07;;;2.60;99.90;;;;;;6245768;22;20512;-88
2022/01/15 16:12:31;;;;;;;22.37;10.77;;;2.10;99.90;;;;;;6250270;22;20401;-89
2022/01/15 16:18:15;;;;;;;24.90;10.63;;;2.00;99.90;;;;;;6214969;23;20059;-88
2022/01/15 16:21:32;;;;;;;;;;;;;;;;;;;;;
2022/01/15 16:24:33;;;;;;;;;;;;;;;;;;;;;
2022/01/15 16:27:42;;;;;;;21.40;10.80;;;1.70;99.90;;;;;;6221998;23;20044;-88
2022/01/15 16:31:07;;;;;;;;;;;;;;;;;;;;;
2022/01/15 16:38:05;;;;;;;20.23;9.87;;;1.70;99.90;;;;;;6077598;23;20067;-89
2022/01/15 16:40:57;;;;;;;21.23;9.73;;;1.70;99.90;;;;;;6058169;23;20011;-89
2022/01/15 16:44:10;;;;;;;;;;;;;;;;;;;;;
2022/01/15 16:50:21;;;;;;;24.03;10.30;;;1.50;99.90;;;;;;6123857;23;20321;-88
2022/01/15 16:57:34;;;;;;;;;;;;;;;;;;;;;
2022/01/15 17:00:57;;;;;;;27.40;11.40;;;1.20;99.90;;;;;;6057481;23;20082;-89
2022/01/15 17:04:18;;;;;;;24.30;10.57;;;1.20;99.90;;;;;;6064927;23;20015;-88
2022/01/15 17:10:10;;;;;;;20.50;10.83;;;1.10;99.90;;;;;;6095605;23;20001;-89
2022/01/15 17:13:35;;;;;;;23.33;10.47;;;1.00;99.90;;;;;;6171665;23;20013;-88
2022/01/15 17:23:54;;;;;;;;;;;;;;;;;;;;;
2022/01/15 17:26:59;;;;;;;22.33;10.27;;;0.90;99.90;;;;;;6215922;23;20100;-89
2022/01/15 17:30:31;;;;;;;25.10;10.23;;;0.90;99.90;;;;;;6213877;23;20051;-90
2022/01/15 17:36:18;;;;;;;25.63;10.47;;;0.90;99.90;;;;;;6219479;23;20016;-90
2022/01/15 17:39:19;;;;;;;24.10;10.67;;;0.80;99.90;;;;;;6129992;23;20045;-89
2022/01/15 17:42:57;;;;;;;;;;;;;;;;;;;;;
2022/01/15 17:46:02;;;;;;;22.40;10.10;;;0.90;99.90;;;;;;6216631;23;20177;-88
2022/01/15 17:49:09;;;;;;;21.40;9.97;;;0.80;99.90;;;;;;6215148;23;20040;-87
2022/01/15 17:52:12;;;;;;;23.83;9.60;;;0.90;99.90;;;;;;6213315;23;20050;-89
2022/01/15 17:54:55;;;;;;;25.63;10.17;;;0.70;99.90;;;;;;6224784;22;20020;-91
2022/01/15 17:57:31;;;;;;;24.85;11.00;;;0.70;99.90;;;;;;6258428;23;20422;-89
2022/01/15 17:59:56;;;;;;;20.23;9.83;;;0.80;99.90;;;;;;6256456;23;20011;-90
2022/01/15 18:02:22;;;;;;;21.40;10.63;;;0.70;99.90;;;;;;6256742;23;20004;-90
2022/01/15 18:04:51;;;;;;;23.33;10.63;;;0.70;99.90;;;;;;6259140;22;20001;-90
2022/01/15 18:07:26;;;;;;;24.90;10.83;;;0.60;99.90;;;;;;6262349;23;20050;-89
2022/01/15 18:10:05;;;;;;;25.13;10.70;;;0.70;99.90;;;;;;6255028;23;20099;-90
2022/01/15 18:12:31;;;;;;;23.00;11.33;;;0.70;99.90;;;;;;6260517;22;20087;-91
2022/01/15 18:14:59;;;;;;;29.70;12.03;;;0.60;99.90;;;;;;6258082;22;20008;-90
2022/01/15 18:17:25;;;;;;;28.10;12.43;;;0.60;99.90;;;;;;6258937;23;20000;-88
2022/01/15 18:19:52;;;;;;;33.23;16.40;;;0.50;99.90;;;;;;6257002;23;20015;-88
2022/01/15 18:22:19;;;;;;;38.07;20.13;;;0.50;99.90;;;;;;6257555;22;20012;-87
2022/01/15 18:24:46;;;;;;;35.17;19.03;;;0.40;99.90;;;;;;6256055;22;19997;-89
2022/01/15 18:27:11;;;;;;;34.53;16.83;;;0.30;99.90;;;;;;6256354;23;20377;-89
2022/01/15 18:29:37;;;;;;;33.80;14.87;;;0.20;99.90;;;;;;6256071;23;20004;-89
2022/01/15 18:32:03;;;;;;;29.70;13.47;;;0.20;99.90;;;;;;6257132;23;20012;-88
2022/01/15 18:34:29;;;;;;;27.07;12.03;;;0.20;99.90;;;;;;6256331;22;20008;-90
2022/01/15 18:36:55;;;;;;;26.13;12.07;;;0.20;99.90;;;;;;6256863;23;20000;-89
2022/01/15 18:39:20;;;;;;;23.43;11.17;;;0.10;99.90;;;;;;6255868;23;20012;-89
2022/01/15 18:41:46;;;;;;;25.17;10.70;;;0.10;99.90;;;;;;6255316;23;20008;-89
2022/01/15 18:44:12;;;;;;;25.33;13.37;;;0.10;99.90;;;;;;6256109;22;20000;-89
2022/01/15 18:46:38;;;;;;;25.80;13.53;;;0.10;99.90;;;;;;6256826;23;20004;-89